sensor_id;sensor_type;location;lat;lon;timestamp;temperature;humidity
29539;DHT22;16482;51.046;4.498;2023-09-07T00:02:15;26.30;52.70
29539;DHT22;16482;51.046;4.498;2023-09-07T00:04:44;26.40;52.80
29539;DHT22;16482;51.046;4.498;2023-09-07T00:07:10;26.40;52.70
29539;DHT22;16482;51.046;4.498;2023-09-07T00:09:39;26.40;52.60
29539;DHT22;16482;51.046;4.498;2023-09-07T00:12:06;26.40;52.60
29539;DHT22;16482;51.046;4.498;2023-09-07T00:14:36;26.40;52.50
29539;DHT22;16482;51.046;4.498;2023-09-07T00:17:04;26.30;52.60
29539;DHT22;16482;51.046;4.498;2023-09-07T00:19:40;26.30;52.70
29539;DHT22;16482;51.046;4.498;2023-09-07T00:22:06;26.30;52.70
29539;DHT22;16482;51.046;4.498;2023-09-07T00:24:32;26.30;52.60
29539;DHT22;16482;51.046;4.498;2023-09-07T00:27:08;26.30;52.70
29539;DHT22;16482;51.046;4.498;2023-09-07T00:29:37;26.30;52.60
29539;DHT22;16482;51.046;4.498;2023-09-07T00:32:04;26.30;52.60
29539;DHT22;16482;51.046;4.498;2023-09-07T00:34:37;26.30;52.50
29539;DHT22;16482;51.046;4.498;2023-09-07T00:37:06;26.30;52.60
29539;DHT22;16482;51.046;4.498;2023-09-07T00:39:40;26.30;52.60
29539;DHT22;16482;51.046;4.498;2023-09-07T00:42:05;26.30;52.50
29539;DHT22;16482;51.046;4.498;2023-09-07T00:44:31;26.30;52.40
29539;DHT22;16482;51.046;4.498;2023-09-07T00:46:57;26.30;52.30
29539;DHT22;16482;51.046;4.498;2023-09-07T00:49:32;26.30;52.20
29539;DHT22;16482;51.046;4.498;2023-09-07T00:51:58;26.30;52.20
29539;DHT22;16482;51.046;4.498;2023-09-07T00:54:24;26.30;52.20
29539;DHT22;16482;51.046;4.498;2023-09-07T00:56:54;26.30;52.20
29539;DHT22;16482;51.046;4.498;2023-09-07T00:59:23;26.30;52.20
29539;DHT22;16482;51.046;4.498;2023-09-07T01:01:52;26.30;52.20
29539;DHT22;16482;51.046;4.498;2023-09-07T01:04:21;26.30;52.30
29539;DHT22;16482;51.046;4.498;2023-09-07T01:07:17;26.30;52.20
29539;DHT22;16482;51.046;4.498;2023-09-07T01:09:44;26.20;52.00
29539;DHT22;16482;51.046;4.498;2023-09-07T01:12:15;26.20;52.10
29539;DHT22;16482;51.046;4.498;2023-09-07T01:14:44;26.20;52.20
29539;DHT22;16482;51.046;4.498;2023-09-07T01:17:19;26.20;52.30
29539;DHT22;16482;51.046;4.498;2023-09-07T01:19:48;26.20;52.20
29539;DHT22;16482;51.046;4.498;2023-09-07T01:22:19;26.20;52.20
29539;DHT22;16482;51.046;4.498;2023-09-07T01:24:49;26.20;52.10
29539;DHT22;16482;51.046;4.498;2023-09-07T01:27:19;26.20;52.10
29539;DHT22;16482;51.046;4.498;2023-09-07T01:29:51;26.20;52.10
29539;DHT22;16482;51.046;4.498;2023-09-07T01:32:22;26.20;52.10
29539;DHT22;16482;51.046;4.498;2023-09-07T01:35:05;26.20;52.00
29539;DHT22;16482;51.046;4.498;2023-09-07T01:37:42;26.20;52.10
29539;DHT22;16482;51.046;4.498;2023-09-07T01:40:08;26.20;52.10
29539;DHT22;16482;51.046;4.498;2023-09-07T01:42:36;26.20;52.10
29539;DHT22;16482;51.046;4.498;2023-09-07T01:45:06;26.20;52.10
29539;DHT22;16482;51.046;4.498;2023-09-07T01:47:42;26.20;52.00
29539;DHT22;16482;51.046;4.498;2023-09-07T01:50:15;26.20;52.70
29539;DHT22;16482;51.046;4.498;2023-09-07T01:52:42;26.20;52.00
29539;DHT22;16482;51.046;4.498;2023-09-07T01:55:17;26.20;52.10
29539;DHT22;16482;51.046;4.498;2023-09-07T01:57:45;26.10;52.00
29539;DHT22;16482;51.046;4.498;2023-09-07T02:00:13;26.10;52.00
29539;DHT22;16482;51.046;4.498;2023-09-07T02:02:45;26.10;52.00
29539;DHT22;16482;51.046;4.498;2023-09-07T02:05:13;26.20;52.10
29539;DHT22;16482;51.046;4.498;2023-09-07T02:07:41;26.10;52.00
29539;DHT22;16482;51.046;4.498;2023-09-07T02:10:08;26.10;52.10
29539;DHT22;16482;51.046;4.498;2023-09-07T02:12:34;26.10;52.00
29539;DHT22;16482;51.046;4.498;2023-09-07T02:15:02;26.10;52.10
29539;DHT22;16482;51.046;4.498;2023-09-07T02:17:29;26.10;52.00
29539;DHT22;16482;51.046;4.498;2023-09-07T02:20:01;26.10;51.90
29539;DHT22;16482;51.046;4.498;2023-09-07T02:22:33;26.10;51.90
29539;DHT22;16482;51.046;4.498;2023-09-07T02:24:59;26.10;51.90
29539;DHT22;16482;51.046;4.498;2023-09-07T02:27:25;26.10;52.00
29539;DHT22;16482;51.046;4.498;2023-09-07T02:29:55;26.10;52.00
29539;DHT22;16482;51.046;4.498;2023-09-07T02:32:20;26.10;51.90
29539;DHT22;16482;51.046;4.498;2023-09-07T02:34:46;26.10;51.80
29539;DHT22;16482;51.046;4.498;2023-09-07T02:37:14;26.10;51.80
29539;DHT22;16482;51.046;4.498;2023-09-07T02:39:42;26.10;51.90
29539;DHT22;16482;51.046;4.498;2023-09-07T02:42:10;26.10;51.70
29539;DHT22;16482;51.046;4.498;2023-09-07T02:44:39;26.20;51.80
29539;DHT22;16482;51.046;4.498;2023-09-07T02:47:05;26.10;51.70
29539;DHT22;16482;51.046;4.498;2023-09-07T02:49:34;26.10;51.80
29539;DHT22;16482;51.046;4.498;2023-09-07T02:52:00;26.10;51.80
29539;DHT22;16482;51.046;4.498;2023-09-07T02:54:26;26.10;51.70
29539;DHT22;16482;51.046;4.498;2023-09-07T02:57:01;26.10;51.70
29539;DHT22;16482;51.046;4.498;2023-09-07T02:59:29;26.10;51.70
29539;DHT22;16482;51.046;4.498;2023-09-07T03:01:55;26.10;51.70
29539;DHT22;16482;51.046;4.498;2023-09-07T03:04:21;26.10;51.60
29539;DHT22;16482;51.046;4.498;2023-09-07T03:06:47;26.10;51.70
29539;DHT22;16482;51.046;4.498;2023-09-07T03:09:24;26.10;51.60
29539;DHT22;16482;51.046;4.498;2023-09-07T03:11:52;26.10;51.60
29539;DHT22;16482;51.046;4.498;2023-09-07T03:14:21;26.10;51.50
29539;DHT22;16482;51.046;4.498;2023-09-07T03:16:54;26.10;51.60
29539;DHT22;16482;51.046;4.498;2023-09-07T03:19:23;26.10;51.50
29539;DHT22;16482;51.046;4.498;2023-09-07T03:21:52;26.10;51.50
29539;DHT22;16482;51.046;4.498;2023-09-07T03:24:23;26.10;51.50
29539;DHT22;16482;51.046;4.498;2023-09-07T03:26:54;26.10;51.50
29539;DHT22;16482;51.046;4.498;2023-09-07T03:29:23;26.10;51.50
29539;DHT22;16482;51.046;4.498;2023-09-07T03:31:51;26.00;51.50
29539;DHT22;16482;51.046;4.498;2023-09-07T03:34:17;26.10;51.60
29539;DHT22;16482;51.046;4.498;2023-09-07T03:36:47;26.10;51.50
29539;DHT22;16482;51.046;4.498;2023-09-07T03:39:23;26.10;51.50
29539;DHT22;16482;51.046;4.498;2023-09-07T03:41:51;26.00;51.40
29539;DHT22;16482;51.046;4.498;2023-09-07T03:44:22;26.00;51.40
29539;DHT22;16482;51.046;4.498;2023-09-07T03:46:55;26.10;51.50
29539;DHT22;16482;51.046;4.498;2023-09-07T03:49:31;26.00;51.40
29539;DHT22;16482;51.046;4.498;2023-09-07T03:51:57;26.10;51.40
29539;DHT22;16482;51.046;4.498;2023-09-07T03:54:23;26.00;51.40
29539;DHT22;16482;51.046;4.498;2023-09-07T03:56:54;26.00;51.40
29539;DHT22;16482;51.046;4.498;2023-09-07T03:59:23;26.00;51.30
29539;DHT22;16482;51.046;4.498;2023-09-07T04:01:51;26.00;51.30
29539;DHT22;16482;51.046;4.498;2023-09-07T04:04:27;26.00;51.40
29539;DHT22;16482;51.046;4.498;2023-09-07T04:06:53;26.00;51.40
29539;DHT22;16482;51.046;4.498;2023-09-07T04:09:22;26.00;51.40
29539;DHT22;16482;51.046;4.498;2023-09-07T04:11:51;26.00;51.30
29539;DHT22;16482;51.046;4.498;2023-09-07T04:14:22;26.10;51.40
29539;DHT22;16482;51.046;4.498;2023-09-07T04:16:52;26.10;51.40
29539;DHT22;16482;51.046;4.498;2023-09-07T04:19:21;26.00;51.30
29539;DHT22;16482;51.046;4.498;2023-09-07T04:21:52;26.00;51.20
29539;DHT22;16482;51.046;4.498;2023-09-07T04:24:18;26.00;51.20
29539;DHT22;16482;51.046;4.498;2023-09-07T04:26:47;26.00;51.20
29539;DHT22;16482;51.046;4.498;2023-09-07T04:29:25;26.00;51.20
29539;DHT22;16482;51.046;4.498;2023-09-07T04:31:54;26.00;51.10
29539;DHT22;16482;51.046;4.498;2023-09-07T04:34:30;26.00;51.80
29539;DHT22;16482;51.046;4.498;2023-09-07T04:36:55;26.00;51.20
29539;DHT22;16482;51.046;4.498;2023-09-07T04:39:24;26.00;51.30
29539;DHT22;16482;51.046;4.498;2023-09-07T04:41:57;26.00;51.20
29539;DHT22;16482;51.046;4.498;2023-09-07T04:44:26;25.90;51.20
29539;DHT22;16482;51.046;4.498;2023-09-07T04:46:59;26.00;51.20
29539;DHT22;16482;51.046;4.498;2023-09-07T04:49:25;26.00;51.20
29539;DHT22;16482;51.046;4.498;2023-09-07T04:51:54;26.00;51.10
29539;DHT22;16482;51.046;4.498;2023-09-07T04:54:23;26.00;51.20
29539;DHT22;16482;51.046;4.498;2023-09-07T04:56:58;26.00;51.10
29539;DHT22;16482;51.046;4.498;2023-09-07T04:59:27;26.00;51.10
29539;DHT22;16482;51.046;4.498;2023-09-07T05:01:53;26.00;51.00
29539;DHT22;16482;51.046;4.498;2023-09-07T05:04:19;26.00;51.10
29539;DHT22;16482;51.046;4.498;2023-09-07T05:06:53;26.00;51.10
29539;DHT22;16482;51.046;4.498;2023-09-07T05:09:30;26.00;51.20
29539;DHT22;16482;51.046;4.498;2023-09-07T05:11:56;26.00;50.90
29539;DHT22;16482;51.046;4.498;2023-09-07T05:14:26;26.00;51.00
29539;DHT22;16482;51.046;4.498;2023-09-07T05:16:52;26.00;50.90
29539;DHT22;16482;51.046;4.498;2023-09-07T05:22:05;26.00;51.00
29539;DHT22;16482;51.046;4.498;2023-09-07T05:24:31;26.00;51.10
29539;DHT22;16482;51.046;4.498;2023-09-07T05:27:09;25.90;51.00
29539;DHT22;16482;51.046;4.498;2023-09-07T05:29:36;26.00;51.00
29539;DHT22;16482;51.046;4.498;2023-09-07T05:32:02;26.00;51.00
29539;DHT22;16482;51.046;4.498;2023-09-07T05:34:37;25.90;51.00
29539;DHT22;16482;51.046;4.498;2023-09-07T05:37:03;26.00;51.00
29539;DHT22;16482;51.046;4.498;2023-09-07T05:39:34;26.00;51.00
29539;DHT22;16482;51.046;4.498;2023-09-07T05:42:00;26.00;51.00
29539;DHT22;16482;51.046;4.498;2023-09-07T05:44:26;26.00;51.10
29539;DHT22;16482;51.046;4.498;2023-09-07T05:46:54;25.90;51.00
29539;DHT22;16482;51.046;4.498;2023-09-07T05:49:22;26.00;51.00
29539;DHT22;16482;51.046;4.498;2023-09-07T05:51:48;26.00;50.90
29539;DHT22;16482;51.046;4.498;2023-09-07T05:54:22;26.00;50.90
29539;DHT22;16482;51.046;4.498;2023-09-07T05:56:48;26.00;50.90
29539;DHT22;16482;51.046;4.498;2023-09-07T05:59:14;26.00;50.90
29539;DHT22;16482;51.046;4.498;2023-09-07T06:01:41;25.90;50.90
29539;DHT22;16482;51.046;4.498;2023-09-07T06:04:07;25.90;50.90
29539;DHT22;16482;51.046;4.498;2023-09-07T06:06:33;26.00;51.10
29539;DHT22;16482;51.046;4.498;2023-09-07T06:08:59;25.90;51.00
29539;DHT22;16482;51.046;4.498;2023-09-07T06:11:25;25.90;51.00
29539;DHT22;16482;51.046;4.498;2023-09-07T06:13:51;25.90;51.00
29539;DHT22;16482;51.046;4.498;2023-09-07T06:16:17;25.90;51.00
29539;DHT22;16482;51.046;4.498;2023-09-07T06:18:43;25.90;51.00
29539;DHT22;16482;51.046;4.498;2023-09-07T06:21:12;26.00;51.00
29539;DHT22;16482;51.046;4.498;2023-09-07T06:23:40;25.90;51.00
29539;DHT22;16482;51.046;4.498;2023-09-07T06:26:07;25.90;51.10
29539;DHT22;16482;51.046;4.498;2023-09-07T06:28:43;25.90;51.20
29539;DHT22;16482;51.046;4.498;2023-09-07T06:31:09;25.90;51.10
29539;DHT22;16482;51.046;4.498;2023-09-07T06:33:38;25.90;51.10
29539;DHT22;16482;51.046;4.498;2023-09-07T06:36:04;25.90;51.20
29539;DHT22;16482;51.046;4.498;2023-09-07T06:38:34;25.90;51.20
29539;DHT22;16482;51.046;4.498;2023-09-07T06:41:08;25.90;51.10
29539;DHT22;16482;51.046;4.498;2023-09-07T06:43:35;25.90;51.20
29539;DHT22;16482;51.046;4.498;2023-09-07T06:46:08;25.90;51.20
29539;DHT22;16482;51.046;4.498;2023-09-07T06:48:35;26.00;51.20
29539;DHT22;16482;51.046;4.498;2023-09-07T06:51:04;25.90;51.30
29539;DHT22;16482;51.046;4.498;2023-09-07T06:53:33;25.90;51.30
29539;DHT22;16482;51.046;4.498;2023-09-07T06:56:08;26.10;51.30
29539;DHT22;16482;51.046;4.498;2023-09-07T06:58:40;26.10;51.20
29539;DHT22;16482;51.046;4.498;2023-09-07T07:01:06;26.20;51.10
29539;DHT22;16482;51.046;4.498;2023-09-07T07:03:35;26.20;51.00
29539;DHT22;16482;51.046;4.498;2023-09-07T07:06:04;26.20;50.80
29539;DHT22;16482;51.046;4.498;2023-09-07T07:08:32;26.30;50.70
29539;DHT22;16482;51.046;4.498;2023-09-07T07:10:58;26.30;50.60
29539;DHT22;16482;51.046;4.498;2023-09-07T07:13:35;26.40;50.50
29539;DHT22;16482;51.046;4.498;2023-09-07T07:16:03;26.40;50.40
29539;DHT22;16482;51.046;4.498;2023-09-07T07:18:37;26.40;50.40
29539;DHT22;16482;51.046;4.498;2023-09-07T07:21:07;26.50;50.30
29539;DHT22;16482;51.046;4.498;2023-09-07T07:23:34;26.40;50.30
29539;DHT22;16482;51.046;4.498;2023-09-07T07:26:03;26.40;50.30
29539;DHT22;16482;51.046;4.498;2023-09-07T07:28:38;26.40;50.40
29539;DHT22;16482;51.046;4.498;2023-09-07T07:31:08;26.40;50.50
29539;DHT22;16482;51.046;4.498;2023-09-07T07:33:37;26.50;50.40
29539;DHT22;16482;51.046;4.498;2023-09-07T07:36:04;26.60;50.50
29539;DHT22;16482;51.046;4.498;2023-09-07T07:38:30;26.50;50.40
29539;DHT22;16482;51.046;4.498;2023-09-07T07:40:59;26.60;50.50
29539;DHT22;16482;51.046;4.498;2023-09-07T07:43:25;26.60;50.40
29539;DHT22;16482;51.046;4.498;2023-09-07T07:45:54;26.50;50.20
29539;DHT22;16482;51.046;4.498;2023-09-07T07:48:20;26.60;50.30
29539;DHT22;16482;51.046;4.498;2023-09-07T07:50:55;26.70;50.20
29539;DHT22;16482;51.046;4.498;2023-09-07T07:53:21;26.70;50.20
29539;DHT22;16482;51.046;4.498;2023-09-07T07:55:49;26.70;50.20
29539;DHT22;16482;51.046;4.498;2023-09-07T07:58:15;26.70;50.10
29539;DHT22;16482;51.046;4.498;2023-09-07T08:00:41;26.70;50.00
29539;DHT22;16482;51.046;4.498;2023-09-07T08:03:10;26.80;50.00
29539;DHT22;16482;51.046;4.498;2023-09-07T08:05:36;26.80;50.00
29539;DHT22;16482;51.046;4.498;2023-09-07T08:08:05;26.80;49.90
29539;DHT22;16482;51.046;4.498;2023-09-07T08:10:35;26.80;49.90
29539;DHT22;16482;51.046;4.498;2023-09-07T08:13:11;26.90;49.80
29539;DHT22;16482;51.046;4.498;2023-09-07T08:15:37;26.90;49.80
29539;DHT22;16482;51.046;4.498;2023-09-07T08:18:03;26.90;49.80
29539;DHT22;16482;51.046;4.498;2023-09-07T08:20:32;27.00;49.80
29539;DHT22;16482;51.046;4.498;2023-09-07T08:23:06;27.00;49.80
29539;DHT22;16482;51.046;4.498;2023-09-07T08:25:34;26.90;49.70
29539;DHT22;16482;51.046;4.498;2023-09-07T08:28:10;27.00;49.70
29539;DHT22;16482;51.046;4.498;2023-09-07T08:30:36;27.00;49.80
29539;DHT22;16482;51.046;4.498;2023-09-07T08:33:02;27.00;49.80
29539;DHT22;16482;51.046;4.498;2023-09-07T08:35:30;27.00;49.80
29539;DHT22;16482;51.046;4.498;2023-09-07T08:38:01;27.00;49.80
29539;DHT22;16482;51.046;4.498;2023-09-07T08:40:30;27.00;49.80
29539;DHT22;16482;51.046;4.498;2023-09-07T08:43:01;27.00;49.90
29539;DHT22;16482;51.046;4.498;2023-09-07T08:45:30;27.00;49.90
29539;DHT22;16482;51.046;4.498;2023-09-07T08:47:58;27.00;49.90
29539;DHT22;16482;51.046;4.498;2023-09-07T08:50:25;27.00;50.00
29539;DHT22;16482;51.046;4.498;2023-09-07T08:52:54;27.00;50.00
29539;DHT22;16482;51.046;4.498;2023-09-07T08:55:23;27.00;50.10
29539;DHT22;16482;51.046;4.498;2023-09-07T08:57:57;27.00;50.10
29539;DHT22;16482;51.046;4.498;2023-09-07T09:00:32;27.00;50.20
29539;DHT22;16482;51.046;4.498;2023-09-07T09:02:59;27.00;50.10
29539;DHT22;16482;51.046;4.498;2023-09-07T09:05:27;27.00;50.10
29539;DHT22;16482;51.046;4.498;2023-09-07T09:08:03;27.00;50.10
29539;DHT22;16482;51.046;4.498;2023-09-07T09:10:30;27.00;50.10
29539;DHT22;16482;51.046;4.498;2023-09-07T09:12:56;27.00;50.20
29539;DHT22;16482;51.046;4.498;2023-09-07T09:15:25;27.00;50.10
29539;DHT22;16482;51.046;4.498;2023-09-07T09:17:53;27.00;50.10
29539;DHT22;16482;51.046;4.498;2023-09-07T09:20:25;26.90;50.00
29539;DHT22;16482;51.046;4.498;2023-09-07T09:22:56;27.00;50.10
29539;DHT22;16482;51.046;4.498;2023-09-07T09:25:25;27.00;50.10
29539;DHT22;16482;51.046;4.498;2023-09-07T09:27:52;26.90;50.00
29539;DHT22;16482;51.046;4.498;2023-09-07T09:30:18;27.00;50.10
29539;DHT22;16482;51.046;4.498;2023-09-07T09:32:48;26.90;50.00
29539;DHT22;16482;51.046;4.498;2023-09-07T09:35:16;27.00;50.00
29539;DHT22;16482;51.046;4.498;2023-09-07T09:37:48;27.00;50.00
29539;DHT22;16482;51.046;4.498;2023-09-07T09:40:15;26.90;50.00
29539;DHT22;16482;51.046;4.498;2023-09-07T09:42:44;26.90;50.00
29539;DHT22;16482;51.046;4.498;2023-09-07T09:45:21;26.90;50.00
29539;DHT22;16482;51.046;4.498;2023-09-07T09:47:58;26.90;50.00
29539;DHT22;16482;51.046;4.498;2023-09-07T09:50:29;26.90;50.00
29539;DHT22;16482;51.046;4.498;2023-09-07T09:52:56;26.90;49.90
29539;DHT22;16482;51.046;4.498;2023-09-07T09:55:23;26.90;49.80
29539;DHT22;16482;51.046;4.498;2023-09-07T09:57:50;26.90;49.80
29539;DHT22;16482;51.046;4.498;2023-09-07T10:00:19;26.80;49.80
29539;DHT22;16482;51.046;4.498;2023-09-07T10:03:10;26.90;49.80
29539;DHT22;16482;51.046;4.498;2023-09-07T10:05:40;26.90;49.80
29539;DHT22;16482;51.046;4.498;2023-09-07T10:08:12;26.80;49.80
29539;DHT22;16482;51.046;4.498;2023-09-07T10:10:40;26.90;49.80
29539;DHT22;16482;51.046;4.498;2023-09-07T10:13:07;26.90;49.70
29539;DHT22;16482;51.046;4.498;2023-09-07T10:15:33;26.80;49.70
29539;DHT22;16482;51.046;4.498;2023-09-07T10:18:13;26.80;49.70
29539;DHT22;16482;51.046;4.498;2023-09-07T10:20:53;26.80;49.60
29539;DHT22;16482;51.046;4.498;2023-09-07T10:23:44;26.90;49.70
29539;DHT22;16482;51.046;4.498;2023-09-07T10:26:18;26.80;49.70
29539;DHT22;16482;51.046;4.498;2023-09-07T10:28:47;26.80;49.80
29539;DHT22;16482;51.046;4.498;2023-09-07T10:31:19;26.80;49.70
29539;DHT22;16482;51.046;4.498;2023-09-07T10:33:46;26.80;49.70
29539;DHT22;16482;51.046;4.498;2023-09-07T10:36:23;26.80;49.70
29539;DHT22;16482;51.046;4.498;2023-09-07T10:38:50;26.80;49.70
29539;DHT22;16482;51.046;4.498;2023-09-07T10:41:19;26.80;49.60
29539;DHT22;16482;51.046;4.498;2023-09-07T10:43:55;26.80;49.60
29539;DHT22;16482;51.046;4.498;2023-09-07T10:46:24;26.90;49.50
29539;DHT22;16482;51.046;4.498;2023-09-07T10:48:53;26.80;49.60
29539;DHT22;16482;51.046;4.498;2023-09-07T10:51:21;26.80;49.60
29539;DHT22;16482;51.046;4.498;2023-09-07T10:53:50;26.80;49.40
29539;DHT22;16482;51.046;4.498;2023-09-07T10:56:15;26.80;49.50
29539;DHT22;16482;51.046;4.498;2023-09-07T10:58:41;26.80;49.40
29539;DHT22;16482;51.046;4.498;2023-09-07T11:01:10;26.80;49.30
29539;DHT22;16482;51.046;4.498;2023-09-07T11:03:44;26.80;49.20
29539;DHT22;16482;51.046;4.498;2023-09-07T11:06:16;26.80;49.30
29539;DHT22;16482;51.046;4.498;2023-09-07T11:08:48;26.80;49.10
29539;DHT22;16482;51.046;4.498;2023-09-07T11:11:15;26.80;49.10
29539;DHT22;16482;51.046;4.498;2023-09-07T11:13:42;26.80;49.00
29539;DHT22;16482;51.046;4.498;2023-09-07T11:16:15;26.80;48.90
29539;DHT22;16482;51.046;4.498;2023-09-07T11:18:42;26.80;48.90
29539;DHT22;16482;51.046;4.498;2023-09-07T11:21:10;26.80;48.90
29539;DHT22;16482;51.046;4.498;2023-09-07T11:23:36;26.80;48.90
29539;DHT22;16482;51.046;4.498;2023-09-07T11:26:10;26.80;48.90
29539;DHT22;16482;51.046;4.498;2023-09-07T11:28:46;26.80;48.90
29539;DHT22;16482;51.046;4.498;2023-09-07T11:31:12;26.80;48.90
29539;DHT22;16482;51.046;4.498;2023-09-07T11:33:41;26.80;48.80
29539;DHT22;16482;51.046;4.498;2023-09-07T11:36:07;26.80;48.80
29539;DHT22;16482;51.046;4.498;2023-09-07T11:38:36;26.90;48.80
29539;DHT22;16482;51.046;4.498;2023-09-07T11:41:05;26.80;48.80
29539;DHT22;16482;51.046;4.498;2023-09-07T11:43:34;26.80;48.80
29539;DHT22;16482;51.046;4.498;2023-09-07T11:46:00;26.80;48.80
29539;DHT22;16482;51.046;4.498;2023-09-07T11:48:34;26.80;48.70
29539;DHT22;16482;51.046;4.498;2023-09-07T11:51:07;26.90;49.30
29539;DHT22;16482;51.046;4.498;2023-09-07T11:53:34;26.90;48.70
29539;DHT22;16482;51.046;4.498;2023-09-07T11:56:09;26.80;48.60
29539;DHT22;16482;51.046;4.498;2023-09-07T11:58:37;26.80;48.60
29539;DHT22;16482;51.046;4.498;2023-09-07T12:01:08;26.80;48.70
29539;DHT22;16482;51.046;4.498;2023-09-07T12:03:37;26.80;48.60
29539;DHT22;16482;51.046;4.498;2023-09-07T12:06:03;26.80;48.70
29539;DHT22;16482;51.046;4.498;2023-09-07T12:08:29;26.80;48.50
29539;DHT22;16482;51.046;4.498;2023-09-07T12:11:04;26.80;48.50
29539;DHT22;16482;51.046;4.498;2023-09-07T12:13:40;26.80;48.60
29539;DHT22;16482;51.046;4.498;2023-09-07T12:16:06;26.80;48.50
29539;DHT22;16482;51.046;4.498;2023-09-07T12:18:35;26.90;48.60
29539;DHT22;16482;51.046;4.498;2023-09-07T12:21:05;26.80;48.60
29539;DHT22;16482;51.046;4.498;2023-09-07T12:23:33;26.80;48.50
29539;DHT22;16482;51.046;4.498;2023-09-07T12:26:07;26.90;48.60
29539;DHT22;16482;51.046;4.498;2023-09-07T12:28:34;26.90;48.50
29539;DHT22;16482;51.046;4.498;2023-09-07T12:31:00;26.90;48.60
29539;DHT22;16482;51.046;4.498;2023-09-07T12:33:26;26.90;48.60
29539;DHT22;16482;51.046;4.498;2023-09-07T12:35:52;26.80;48.50
29539;DHT22;16482;51.046;4.498;2023-09-07T12:38:21;26.90;48.60
29539;DHT22;16482;51.046;4.498;2023-09-07T12:40:50;26.90;48.50
29539;DHT22;16482;51.046;4.498;2023-09-07T12:43:16;26.90;48.60
29539;DHT22;16482;51.046;4.498;2023-09-07T12:45:42;26.90;48.60
29539;DHT22;16482;51.046;4.498;2023-09-07T12:48:11;26.80;48.50
29539;DHT22;16482;51.046;4.498;2023-09-07T12:50:36;26.90;48.50
29539;DHT22;16482;51.046;4.498;2023-09-07T12:53:03;26.90;48.40
29539;DHT22;16482;51.046;4.498;2023-09-07T12:55:29;26.90;48.40
29539;DHT22;16482;51.046;4.498;2023-09-07T12:57:58;26.80;48.40
29539;DHT22;16482;51.046;4.498;2023-09-07T13:00:26;26.80;48.40
29539;DHT22;16482;51.046;4.498;2023-09-07T13:02:54;26.90;48.40
29539;DHT22;16482;51.046;4.498;2023-09-07T13:05:27;26.90;48.40
29539;DHT22;16482;51.046;4.498;2023-09-07T13:07:53;26.90;48.40
29539;DHT22;16482;51.046;4.498;2023-09-07T13:10:20;26.90;48.40
29539;DHT22;16482;51.046;4.498;2023-09-07T13:12:49;26.90;48.50
29539;DHT22;16482;51.046;4.498;2023-09-07T13:15:14;26.90;48.50
29539;DHT22;16482;51.046;4.498;2023-09-07T13:17:43;26.90;48.50
29539;DHT22;16482;51.046;4.498;2023-09-07T13:20:09;26.90;48.40
29539;DHT22;16482;51.046;4.498;2023-09-07T13:22:45;26.90;48.50
29539;DHT22;16482;51.046;4.498;2023-09-07T13:25:14;26.90;48.50
29539;DHT22;16482;51.046;4.498;2023-09-07T13:27:43;26.80;49.00
29539;DHT22;16482;51.046;4.498;2023-09-07T13:30:09;26.90;48.50
29539;DHT22;16482;51.046;4.498;2023-09-07T13:32:36;26.90;48.50
29539;DHT22;16482;51.046;4.498;2023-09-07T13:35:02;26.90;48.40
29539;DHT22;16482;51.046;4.498;2023-09-07T13:37:31;26.90;48.40
29539;DHT22;16482;51.046;4.498;2023-09-07T13:39:57;26.90;48.40
29539;DHT22;16482;51.046;4.498;2023-09-07T13:42:25;26.90;48.40
29539;DHT22;16482;51.046;4.498;2023-09-07T13:44:52;26.90;48.30
29539;DHT22;16482;51.046;4.498;2023-09-07T13:47:21;26.90;48.50
29539;DHT22;16482;51.046;4.498;2023-09-07T13:49:50;26.90;48.40
29539;DHT22;16482;51.046;4.498;2023-09-07T13:52:16;26.90;48.40
29539;DHT22;16482;51.046;4.498;2023-09-07T13:54:41;26.90;48.50
29539;DHT22;16482;51.046;4.498;2023-09-07T13:57:07;26.90;48.50
29539;DHT22;16482;51.046;4.498;2023-09-07T13:59:34;26.90;48.50
29539;DHT22;16482;51.046;4.498;2023-09-07T14:02:04;26.90;48.50
29539;DHT22;16482;51.046;4.498;2023-09-07T14:04:33;26.90;48.50
29539;DHT22;16482;51.046;4.498;2023-09-07T14:07:02;26.90;48.60
29539;DHT22;16482;51.046;4.498;2023-09-07T14:09:28;26.90;48.60
29539;DHT22;16482;51.046;4.498;2023-09-07T14:11:54;26.90;48.60
29539;DHT22;16482;51.046;4.498;2023-09-07T14:14:25;26.90;48.70
29539;DHT22;16482;51.046;4.498;2023-09-07T14:16:53;26.90;48.60
29539;DHT22;16482;51.046;4.498;2023-09-07T14:19:24;26.90;48.70
29539;DHT22;16482;51.046;4.498;2023-09-07T14:21:56;26.90;48.70
29539;DHT22;16482;51.046;4.498;2023-09-07T14:24:25;26.90;48.70
29539;DHT22;16482;51.046;4.498;2023-09-07T14:26:54;26.90;48.80
29539;DHT22;16482;51.046;4.498;2023-09-07T14:29:20;27.00;48.90
29539;DHT22;16482;51.046;4.498;2023-09-07T14:31:46;26.90;48.80
29539;DHT22;16482;51.046;4.498;2023-09-07T14:34:23;26.90;48.90
29539;DHT22;16482;51.046;4.498;2023-09-07T14:36:52;26.90;48.90
29539;DHT22;16482;51.046;4.498;2023-09-07T14:39:27;26.90;48.90
29539;DHT22;16482;51.046;4.498;2023-09-07T14:41:56;26.90;49.00
29539;DHT22;16482;51.046;4.498;2023-09-07T14:44:25;26.90;49.00
29539;DHT22;16482;51.046;4.498;2023-09-07T14:46:54;26.80;49.00
29539;DHT22;16482;51.046;4.498;2023-09-07T14:49:24;26.90;49.10
29539;DHT22;16482;51.046;4.498;2023-09-07T14:51:55;26.90;49.10
29539;DHT22;16482;51.046;4.498;2023-09-07T14:54:23;26.90;49.20
29539;DHT22;16482;51.046;4.498;2023-09-07T14:56:49;27.00;49.30
29539;DHT22;16482;51.046;4.498;2023-09-07T14:59:15;26.90;49.20
29539;DHT22;16482;51.046;4.498;2023-09-07T15:01:41;26.90;49.30
29539;DHT22;16482;51.046;4.498;2023-09-07T15:04:08;26.90;49.30
29539;DHT22;16482;51.046;4.498;2023-09-07T15:06:36;26.90;49.30
29539;DHT22;16482;51.046;4.498;2023-09-07T15:09:03;26.90;49.30
29539;DHT22;16482;51.046;4.498;2023-09-07T15:11:36;26.90;49.40
29539;DHT22;16482;51.046;4.498;2023-09-07T15:14:02;26.90;49.50
29539;DHT22;16482;51.046;4.498;2023-09-07T15:16:30;26.90;49.50
29539;DHT22;16482;51.046;4.498;2023-09-07T15:18:56;26.90;49.50
29539;DHT22;16482;51.046;4.498;2023-09-07T15:21:25;27.00;49.60
29539;DHT22;16482;51.046;4.498;2023-09-07T15:23:51;26.90;49.60
29539;DHT22;16482;51.046;4.498;2023-09-07T15:26:20;26.90;49.60
29539;DHT22;16482;51.046;4.498;2023-09-07T15:28:55;26.90;49.60
29539;DHT22;16482;51.046;4.498;2023-09-07T15:31:24;26.90;49.70
29539;DHT22;16482;51.046;4.498;2023-09-07T15:33:50;26.90;49.70
29539;DHT22;16482;51.046;4.498;2023-09-07T15:36:16;26.90;49.70
29539;DHT22;16482;51.046;4.498;2023-09-07T15:38:42;26.90;49.70
29539;DHT22;16482;51.046;4.498;2023-09-07T15:41:11;27.00;49.80
29539;DHT22;16482;51.046;4.498;2023-09-07T15:43:37;27.00;49.80
29539;DHT22;16482;51.046;4.498;2023-09-07T15:46:08;26.90;49.80